Time;durP1;ratioP1;P1;durP2;ratioP2;P2;SDS_P1;SDS_P2;PMS_P1;PMS_P2;Temp;Humidity;BMP_temperature;BMP_pressure;BME280_temperature;BME280_humidity;BME280_pressure;Samples;Min_cycle;Max_cycle;Signal;HPM_P1;HPM_P2
2023/01/08 00:00:22;;;;;;;;;4.25;4.00;;;;;;;;5129580;27;45524;-80
2023/01/08 00:02:48;;;;;;;;;4.75;3.00;;;;;;;;5123892;27;45479;-80
2023/01/08 00:05:13;;;;;;;;;3.25;2.75;;;;;;;;5122645;27;45414;-81
2023/01/08 00:07:39;;;;;;;;;5.00;3.25;;;;;;;;5121774;27;45592;-81
2023/01/08 00:10:04;;;;;;;;;1.00;1.00;;;;;;;;5113857;27;45405;-82
2023/01/08 00:12:29;;;;;;;;;6.25;5.25;;;;;;;;5112295;27;45437;-81
2023/01/08 00:14:55;;;;;;;;;6.00;3.25;;;;;;;;5113331;27;45427;-82
2023/01/08 00:17:20;;;;;;;;;5.00;3.50;;;;;;;;5122295;27;45348;-80
2023/01/08 00:19:45;;;;;;;;;4.25;4.25;;;;;;;;5131620;27;45918;-81
2023/01/08 00:22:10;;;;;;;;;3.00;3.00;;;;;;;;5118964;27;45396;-81
2023/01/08 00:24:36;;;;;;;;;4.25;4.25;;;;;;;;5127715;27;45289;-80
2023/01/08 00:27:01;;;;;;;;;4.75;3.75;;;;;;;;5125637;27;45360;-80
2023/01/08 00:29:26;;;;;;;;;4.50;3.00;;;;;;;;5119937;27;46144;-80
2023/01/08 00:31:51;;;;;;;;;4.00;4.00;;;;;;;;5131415;27;45465;-80
2023/01/08 00:34:17;;;;;;;;;3.50;3.50;;;;;;;;5117652;27;45777;-81
2023/01/08 00:36:42;;;;;;;;;4.00;4.00;;;;;;;;5127851;27;45606;-81
2023/01/08 00:39:07;;;;;;;;;6.75;4.50;;;;;;;;5129826;27;47189;-81
2023/01/08 00:41:32;;;;;;;;;3.00;3.00;;;;;;;;5121138;27;45364;-79
2023/01/08 00:43:57;;;;;;;;;6.75;5.00;;;;;;;;5132992;27;45348;-81
2023/01/08 00:46:23;;;;;;;;;3.50;3.50;;;;;;;;5122367;27;45822;-82
2023/01/08 00:48:48;;;;;;;;;4.00;2.50;;;;;;;;5128837;27;45322;-82
2023/01/08 00:51:13;;;;;;;;;6.75;3.75;;;;;;;;5117884;27;45413;-81
2023/01/08 00:53:38;;;;;;;;;5.75;3.75;;;;;;;;5124934;27;45559;-81
2023/01/08 00:56:05;;;;;;;;;3.75;2.25;;;;;;;;5134802;27;45646;-80
2023/01/08 00:58:31;;;;;;;;;3.00;3.00;;;;;;;;5123814;27;48051;-82
2023/01/08 01:00:56;;;;;;;;;3.50;2.00;;;;;;;;5127837;27;45513;-81
2023/01/08 01:03:22;;;;;;;;;4.25;3.00;;;;;;;;5131482;27;45388;-81
2023/01/08 01:05:48;;;;;;;;;4.00;4.00;;;;;;;;5119447;27;45498;-81
2023/01/08 01:08:13;;;;;;;;;4.50;4.50;;;;;;;;5130145;27;45421;-82
2023/01/08 01:10:39;;;;;;;;;2.00;2.00;;;;;;;;5130017;27;45530;-83
2023/01/08 01:13:04;;;;;;;;;5.00;5.00;;;;;;;;5128622;27;45487;-82
2023/01/08 01:15:29;;;;;;;;;5.00;4.00;;;;;;;;5122793;27;45455;-82
2023/01/08 01:17:55;;;;;;;;;4.50;3.50;;;;;;;;5124329;27;45441;-83
2023/01/08 01:20:21;;;;;;;;;2.25;2.25;;;;;;;;5132443;27;45440;-82
2023/01/08 01:22:46;;;;;;;;;2.75;2.75;;;;;;;;5126519;27;45472;-82
2023/01/08 01:25:12;;;;;;;;;2.00;2.00;;;;;;;;5126512;27;45333;-82
2023/01/08 01:27:37;;;;;;;;;2.50;2.50;;;;;;;;5132835;27;45361;-82
2023/01/08 01:30:02;;;;;;;;;3.25;2.25;;;;;;;;5120624;27;45378;-82
2023/01/08 01:32:28;;;;;;;;;3.50;3.50;;;;;;;;5131774;27;45410;-82
2023/01/08 01:34:53;;;;;;;;;2.00;2.00;;;;;;;;5117740;27;46323;-80
2023/01/08 01:37:18;;;;;;;;;3.00;3.00;;;;;;;;5117173;27;45391;-81
2023/01/08 01:39:43;;;;;;;;;4.00;3.00;;;;;;;;5116181;27;45483;-81
2023/01/08 01:42:38;;;;;;;;;4.00;4.00;;;;;;;;5114667;27;45325;-81
2023/01/08 01:44:58;;;;;;;;;3.25;3.00;;;;;;;;5107871;27;45594;-81
2023/01/08 01:47:33;;;;;;;;;4.00;4.00;;;;;;;;5118271;27;47144;-79
2023/01/08 01:50:02;;;;;;;;;3.50;3.00;;;;;;;;5132968;27;45375;-78
2023/01/08 01:52:29;;;;;;;;;4.00;3.00;;;;;;;;5138620;27;45288;-79
2023/01/08 01:54:56;;;;;;;;;6.00;6.00;;;;;;;;5128330;27;45411;-80
2023/01/08 01:57:21;;;;;;;;;4.50;3.50;;;;;;;;5122510;27;46029;-80
2023/01/08 01:59:47;;;;;;;;;1.50;1.50;;;;;;;;5119826;27;45384;-79
2023/01/08 02:02:12;;;;;;;;;2.75;2.25;;;;;;;;5135202;27;45359;-78
2023/01/08 02:04:37;;;;;;;;;4.00;4.00;;;;;;;;5129528;27;45297;-78
2023/01/08 02:07:09;;;;;;;;;2.50;2.50;;;;;;;;5127521;27;46482;-78
2023/01/08 02:09:40;;;;;;;;;3.00;1.50;;;;;;;;5114790;27;45466;-79
2023/01/08 02:12:19;;;;;;;;;1.50;1.50;;;;;;;;5122017;27;45358;-79
2023/01/08 02:14:50;;;;;;;;;2.25;2.00;;;;;;;;5126720;27;45290;-79
2023/01/08 02:17:20;;;;;;;;;2.00;2.00;;;;;;;;5129503;27;46610;-79
2023/01/08 02:19:48;;;;;;;;;3.00;1.00;;;;;;;;5119247;27;45502;-79
2023/01/08 02:22:30;;;;;;;;;3.00;3.00;;;;;;;;5121338;27;45388;-79
2023/01/08 02:25:01;;;;;;;;;2.00;2.00;;;;;;;;5112364;27;45370;-79
2023/01/08 02:27:29;;;;;;;;;2.75;2.75;;;;;;;;5115736;27;47201;-79
2023/01/08 02:29:55;;;;;;;;;3.00;3.00;;;;;;;;5133084;27;45959;-78
2023/01/08 02:32:27;;;;;;;;;4.50;2.00;;;;;;;;5114658;27;45483;-80
2023/01/08 02:34:53;;;;;;;;;2.00;2.00;;;;;;;;5113583;27;45501;-79
2023/01/08 02:37:19;;;;;;;;;2.75;1.50;;;;;;;;5107340;27;47325;-80
2023/01/08 02:39:55;;;;;;;;;1.50;1.00;;;;;;;;5128622;27;45423;-79
2023/01/08 02:42:23;;;;;;;;;1.75;1.75;;;;;;;;5121177;27;45514;-80
2023/01/08 02:45:08;;;;;;;;;2.00;2.00;;;;;;;;5114885;27;45460;-78
2023/01/08 02:47:36;;;;;;;;;1.00;1.00;;;;;;;;5125922;27;45459;-78
2023/01/08 02:50:22;;;;;;;;;1.75;1.75;;;;;;;;5117757;27;45414;-78
2023/01/08 02:52:51;;;;;;;;;1.00;1.00;;;;;;;;5126968;27;45415;-78
2023/01/08 02:55:19;;;;;;;;;1.00;1.00;;;;;;;;5128363;27;45375;-78
2023/01/08 02:57:45;;;;;;;;;2.00;1.00;;;;;;;;5115320;27;48279;-79
2023/01/08 03:00:11;;;;;;;;;1.75;1.75;;;;;;;;5113944;27;45395;-80
2023/01/08 03:02:37;;;;;;;;;2.00;1.00;;;;;;;;5134501;27;45517;-81
2023/01/08 03:05:06;;;;;;;;;2.00;1.00;;;;;;;;5126024;27;45361;-81
2023/01/08 03:07:32;;;;;;;;;3.00;1.00;;;;;;;;5121525;27;45419;-80
2023/01/08 03:09:58;;;;;;;;;2.00;2.00;;;;;;;;5132313;27;45420;-80
2023/01/08 03:12:29;;;;;;;;;1.25;0.75;;;;;;;;5120730;27;45524;-81
2023/01/08 03:15:05;;;;;;;;;2.25;1.50;;;;;;;;5125459;27;45514;-81
2023/01/08 03:17:33;;;;;;;;;1.00;1.00;;;;;;;;5128875;27;46316;-80
2023/01/08 03:20:00;;;;;;;;;2.50;1.50;;;;;;;;5118395;27;45450;-81
2023/01/08 03:22:27;;;;;;;;;2.00;1.00;;;;;;;;5129613;27;45356;-80
2023/01/08 03:24:53;;;;;;;;;1.25;0.75;;;;;;;;5124494;27;45290;-80
2023/01/08 03:27:21;;;;;;;;;1.00;1.00;;;;;;;;5108744;27;46867;-80
2023/01/08 03:29:48;;;;;;;;;2.75;1.25;;;;;;;;5128990;27;45498;-77
2023/01/08 03:32:15;;;;;;;;;5.00;1.75;;;;;;;;5117981;27;45749;-78
2023/01/08 03:34:42;;;;;;;;;1.00;1.00;;;;;;;;5126251;27;45470;-79
2023/01/08 03:37:09;;;;;;;;;2.00;2.00;;;;;;;;5123700;27;46189;-79
2023/01/08 03:39:37;;;;;;;;;2.75;1.00;;;;;;;;5130510;27;45606;-79
2023/01/08 03:42:06;;;;;;;;;2.00;1.00;;;;;;;;5118463;27;45571;-79
2023/01/08 03:44:31;;;;;;;;;0.25;0.00;;;;;;;;5128740;27;45367;-79
2023/01/08 03:46:56;;;;;;;;;1.00;1.00;;;;;;;;5125524;27;45534;-79
2023/01/08 03:49:23;;;;;;;;;4.00;1.00;;;;;;;;5121561;27;45400;-79
2023/01/08 03:51:48;;;;;;;;;1.75;1.75;;;;;;;;5132168;27;45378;-81
2023/01/08 03:54:15;;;;;;;;;1.00;1.00;;;;;;;;5119033;27;45436;-81
2023/01/08 03:56:41;;;;;;;;;3.00;1.00;;;;;;;;5129725;27;47072;-82
2023/01/08 03:59:06;;;;;;;;;1.75;1.00;;;;;;;;5123807;27;45354;-80
2023/01/08 04:01:31;;;;;;;;;0.00;0.00;;;;;;;;5114721;27;45590;-81
2023/01/08 04:03:57;;;;;;;;;1.25;1.25;;;;;;;;5131243;27;45295;-81
2023/01/08 04:06:22;;;;;;;;;1.25;1.00;;;;;;;;5119820;27;45349;-81
2023/01/08 04:08:48;;;;;;;;;1.50;1.00;;;;;;;;5125446;27;45672;-81
2023/01/08 04:11:13;;;;;;;;;0.50;0.50;;;;;;;;5129319;27;45518;-82
2023/01/08 04:13:38;;;;;;;;;1.00;0.75;;;;;;;;5122329;27;45326;-82
2023/01/08 04:16:04;;;;;;;;;0.50;0.00;;;;;;;;5128618;27;45410;-81
2023/01/08 04:18:29;;;;;;;;;0.00;0.00;;;;;;;;5130836;27;45403;-80
2023/01/08 04:20:54;;;;;;;;;2.00;1.00;;;;;;;;5127740;27;45423;-81
2023/01/08 04:23:20;;;;;;;;;1.50;1.00;;;;;;;;5124772;27;45395;-80
2023/01/08 04:25:45;;;;;;;;;0.00;0.00;;;;;;;;5135402;27;46121;-81
2023/01/08 04:28:10;;;;;;;;;1.00;1.00;;;;;;;;5122172;27;45914;-80
2023/01/08 04:30:36;;;;;;;;;2.50;0.75;;;;;;;;5129743;27;45362;-81
2023/01/08 04:33:01;;;;;;;;;2.00;1.00;;;;;;;;5128903;27;45464;-81
2023/01/08 04:35:26;;;;;;;;;1.00;1.00;;;;;;;;5128865;27;45502;-82
2023/01/08 04:37:51;;;;;;;;;0.00;0.00;;;;;;;;5118596;27;45373;-81
2023/01/08 04:40:17;;;;;;;;;0.50;0.50;;;;;;;;5119114;27;45666;-79
2023/01/08 04:42:42;;;;;;;;;0.00;0.00;;;;;;;;5118335;27;45396;-79
2023/01/08 04:45:08;;;;;;;;;1.00;1.00;;;;;;;;5118542;27;45671;-79
2023/01/08 04:47:33;;;;;;;;;1.00;1.00;;;;;;;;5118907;27;45360;-78
2023/01/08 04:49:58;;;;;;;;;0.75;0.75;;;;;;;;5118486;27;45349;-78
2023/01/08 04:52:23;;;;;;;;;0.25;0.00;;;;;;;;5118044;27;45326;-81
2023/01/08 04:54:49;;;;;;;;;1.00;1.00;;;;;;;;5117999;27;45337;-80
2023/01/08 04:57:14;;;;;;;;;1.00;0.00;;;;;;;;5118427;27;45306;-80
2023/01/08 04:59:39;;;;;;;;;1.50;0.50;;;;;;;;5119387;27;45325;-80
2023/01/08 05:02:04;;;;;;;;;0.50;0.50;;;;;;;;5120387;27;45403;-81
2023/01/08 05:04:30;;;;;;;;;2.00;0.25;;;;;;;;5120965;27;46351;-81
2023/01/08 05:06:55;;;;;;;;;1.00;1.00;;;;;;;;5110356;27;45363;-81
2023/01/08 05:09:20;;;;;;;;;3.00;1.50;;;;;;;;5127180;27;45353;-81
2023/01/08 05:11:45;;;;;;;;;0.00;0.00;;;;;;;;5126570;27;44835;-82
2023/01/08 05:14:11;;;;;;;;;0.00;0.00;;;;;;;;5123403;27;46302;-81
2023/01/08 05:16:36;;;;;;;;;0.00;0.00;;;;;;;;5120876;27;45339;-81
2023/01/08 05:19:01;;;;;;;;;0.75;0.75;;;;;;;;5118332;27;45347;-82
2023/01/08 05:21:26;;;;;;;;;0.00;0.00;;;;;;;;5117325;27;45599;-82
2023/01/08 05:23:52;;;;;;;;;1.50;0.00;;;;;;;;5115889;27;47314;-82
2023/01/08 05:26:18;;;;;;;;;0.50;0.50;;;;;;;;5117551;27;45425;-81
2023/01/08 05:28:43;;;;;;;;;3.00;0.75;;;;;;;;5117378;27;45412;-82
2023/01/08 05:31:10;;;;;;;;;0.00;0.00;;;;;;;;5117588;27;45390;-82
2023/01/08 05:33:35;;;;;;;;;2.00;2.00;;;;;;;;5117234;27;47182;-81
2023/01/08 05:36:02;;;;;;;;;0.25;0.25;;;;;;;;5117310;27;45322;-79
2023/01/08 05:38:28;;;;;;;;;0.00;0.00;;;;;;;;5117603;27;45291;-80
2023/01/08 05:40:53;;;;;;;;;0.00;0.00;;;;;;;;5117469;27;45362;-80
2023/01/08 05:43:18;;;;;;;;;2.25;1.50;;;;;;;;5117448;27;45383;-79
2023/01/08 05:45:43;;;;;;;;;0.50;0.50;;;;;;;;5117975;27;45313;-80
2023/01/08 05:48:09;;;;;;;;;0.00;0.00;;;;;;;;5117018;27;45347;-81
2023/01/08 05:50:34;;;;;;;;;1.50;1.50;;;;;;;;5115810;27;45405;-82
2023/01/08 05:53:00;;;;;;;;;0.00;0.00;;;;;;;;5117620;27;46192;-82
2023/01/08 05:55:25;;;;;;;;;1.00;1.00;;;;;;;;5117723;27;45286;-82
2023/01/08 05:57:50;;;;;;;;;0.50;0.50;;;;;;;;5117843;27;45277;-83
2023/01/08 06:00:16;;;;;;;;;1.00;0.00;;;;;;;;5117865;27;45346;-82
2023/01/08 06:02:45;;;;;;;;;0.00;0.00;;;;;;;;5115270;27;47330;-82
2023/01/08 06:05:10;;;;;;;;;0.00;0.00;;;;;;;;5117252;27;45559;-83
2023/01/08 06:07:35;;;;;;;;;0.00;0.00;;;;;;;;5117714;27;45522;-83
2023/01/08 06:10:00;;;;;;;;;0.00;0.00;;;;;;;;5117472;27;45445;-82
2023/01/08 06:12:25;;;;;;;;;0.00;0.00;;;;;;;;5117036;27;45429;-83
2023/01/08 06:14:51;;;;;;;;;0.00;0.00;;;;;;;;5094909;27;45521;-83
2023/01/08 06:17:16;;;;;;;;;1.00;0.00;;;;;;;;5096782;27;45405;-83
2023/01/08 06:19:41;;;;;;;;;0.00;0.00;;;;;;;;5097075;27;45417;-83
2023/01/08 06:22:06;;;;;;;;;0.00;0.00;;;;;;;;5096703;27;45399;-83
2023/01/08 06:24:32;;;;;;;;;0.00;0.00;;;;;;;;5096730;27;45579;-83
2023/01/08 06:26:57;;;;;;;;;0.00;0.00;;;;;;;;5095198;27;45403;-82
2023/01/08 06:29:22;;;;;;;;;0.00;0.00;;;;;;;;5096978;27;45344;-82
2023/01/08 06:31:47;;;;;;;;;0.00;0.00;;;;;;;;5095861;27;46323;-82
2023/01/08 06:34:13;;;;;;;;;0.00;0.00;;;;;;;;5094858;27;45299;-83
2023/01/08 06:36:38;;;;;;;;;0.00;0.00;;;;;;;;5096372;27;45377;-82
2023/01/08 06:39:06;;;;;;;;;0.00;0.00;;;;;;;;5096380;27;45516;-82
2023/01/08 06:41:32;;;;;;;;;0.00;0.00;;;;;;;;5094841;27;47166;-82
2023/01/08 06:43:57;;;;;;;;;0.00;0.00;;;;;;;;5094402;27;45473;-83
2023/01/08 06:46:22;;;;;;;;;0.00;0.00;;;;;;;;5094494;27;45393;-81
2023/01/08 06:48:47;;;;;;;;;0.00;0.00;;;;;;;;5094478;27;45416;-82
2023/01/08 06:51:13;;;;;;;;;0.00;0.00;;;;;;;;5094747;27;47062;-82
2023/01/08 06:53:38;;;;;;;;;0.00;0.00;;;;;;;;5105474;27;45316;-82
2023/01/08 06:56:06;;;;;;;;;0.00;0.00;;;;;;;;5115429;27;45393;-82
2023/01/08 06:58:31;;;;;;;;;0.00;0.00;;;;;;;;5116368;27;45398;-83
2023/01/08 07:00:57;;;;;;;;;0.00;0.00;;;;;;;;5097389;27;45279;-83
2023/01/08 07:03:23;;;;;;;;;0.00;0.00;;;;;;;;5116240;27;45315;-82
2023/01/08 07:05:49;;;;;;;;;0.00;0.00;;;;;;;;5114823;27;45238;-82
2023/01/08 07:08:15;;;;;;;;;0.00;0.00;;;;;;;;5116619;27;45526;-82
2023/01/08 07:10:40;;;;;;;;;1.00;0.00;;;;;;;;5115252;27;45440;-81
2023/01/08 07:13:08;;;;;;;;;0.00;0.00;;;;;;;;5097479;27;45268;-82
2023/01/08 07:15:37;;;;;;;;;1.00;0.00;;;;;;;;5116207;27;45288;-83
2023/01/08 07:18:07;;;;;;;;;1.00;0.00;;;;;;;;5115991;27;45439;-82
2023/01/08 07:20:33;;;;;;;;;1.00;1.00;;;;;;;;5115762;27;47181;-82
2023/01/08 07:23:02;;;;;;;;;1.00;1.00;;;;;;;;5114496;27;45948;-82
2023/01/08 07:25:27;;;;;;;;;2.00;0.00;;;;;;;;5116055;27;45665;-82
2023/01/08 07:27:52;;;;;;;;;0.00;0.00;;;;;;;;5116154;27;45251;-82
2023/01/08 07:30:17;;;;;;;;;1.00;1.00;;;;;;;;5115910;27;45905;-82
2023/01/08 07:32:42;;;;;;;;;0.00;0.00;;;;;;;;5115791;27;45289;-82
2023/01/08 07:35:08;;;;;;;;;1.00;1.00;;;;;;;;5115900;27;45320;-80
2023/01/08 07:37:33;;;;;;;;;0.75;0.00;;;;;;;;5115713;27;45350;-79
2023/01/08 07:39:58;;;;;;;;;0.00;0.00;;;;;;;;5115898;27;46074;-79
2023/01/08 07:42:24;;;;;;;;;0.75;0.00;;;;;;;;5115950;27;45500;-79
2023/01/08 07:44:49;;;;;;;;;0.00;0.00;;;;;;;;5117333;27;45316;-79
2023/01/08 07:47:15;;;;;;;;;0.75;0.75;;;;;;;;5119317;27;45284;-79
2023/01/08 07:49:40;;;;;;;;;0.00;0.00;;;;;;;;5119416;27;45654;-79
2023/01/08 07:52:05;;;;;;;;;0.50;0.00;;;;;;;;5119422;27;45468;-80
2023/01/08 07:54:30;;;;;;;;;1.00;0.00;;;;;;;;5119578;27;45432;-79
2023/01/08 07:56:55;;;;;;;;;1.00;1.00;;;;;;;;5119575;27;45240;-79
2023/01/08 07:59:21;;;;;;;;;0.00;0.00;;;;;;;;5119294;27;45198;-79
2023/01/08 08:01:46;;;;;;;;;1.00;1.00;;;;;;;;5117645;27;45379;-79
2023/01/08 08:04:13;;;;;;;;;1.00;0.00;;;;;;;;5119785;27;45253;-79
2023/01/08 08:06:38;;;;;;;;;0.00;0.00;;;;;;;;5119731;27;45519;-79
2023/01/08 08:09:04;;;;;;;;;0.75;0.00;;;;;;;;5118553;27;46941;-82
2023/01/08 08:11:29;;;;;;;;;0.00;0.00;;;;;;;;5120162;27;45309;-82
2023/01/08 08:13:54;;;;;;;;;1.00;1.00;;;;;;;;5117595;27;45492;-82
2023/01/08 08:16:19;;;;;;;;;0.50;0.00;;;;;;;;5120952;27;45448;-81
2023/01/08 08:18:45;;;;;;;;;2.00;1.00;;;;;;;;5126058;27;45086;-82
2023/01/08 08:21:10;;;;;;;;;0.00;0.00;;;;;;;;5129636;27;45435;-81
2023/01/08 08:23:35;;;;;;;;;1.00;0.00;;;;;;;;5125524;27;45684;-81
2023/01/08 08:26:02;;;;;;;;;1.00;0.00;;;;;;;;5119991;27;45558;-81
2023/01/08 08:28:28;;;;;;;;;0.75;0.75;;;;;;;;5118962;27;45590;-82
2023/01/08 08:30:53;;;;;;;;;0.00;0.00;;;;;;;;5119129;27;45477;-81
2023/01/08 08:33:18;;;;;;;;;1.00;0.00;;;;;;;;5118794;27;45524;-82
2023/01/08 08:35:47;;;;;;;;;1.00;1.00;;;;;;;;5118790;27;45418;-82
2023/01/08 08:38:12;;;;;;;;;3.25;2.50;;;;;;;;5118615;27;45662;-82
2023/01/08 08:40:37;;;;;;;;;0.00;0.00;;;;;;;;5117247;27;45751;-82
2023/01/08 08:43:03;;;;;;;;;0.00;0.00;;;;;;;;5118603;27;45585;-82
2023/01/08 08:45:28;;;;;;;;;0.00;0.00;;;;;;;;5118797;27;45332;-82
2023/01/08 08:47:53;;;;;;;;;3.00;1.75;;;;;;;;5118592;27;45441;-81
2023/01/08 08:50:19;;;;;;;;;1.00;1.00;;;;;;;;5118413;27;45374;-81
2023/01/08 08:52:44;;;;;;;;;2.00;0.00;;;;;;;;5117817;27;45412;-81
2023/01/08 08:55:14;;;;;;;;;27.25;25.75;;;;;;;;5117910;27;45468;-81
2023/01/08 08:57:39;;;;;;;;;3.50;3.00;;;;;;;;5116713;27;45512;-82
2023/01/08 09:00:04;;;;;;;;;2.00;2.00;;;;;;;;5117753;27;45522;-82
2023/01/08 09:02:30;;;;;;;;;0.00;0.00;;;;;;;;5118314;27;45356;-82
2023/01/08 09:04:55;;;;;;;;;1.00;1.00;;;;;;;;5118630;27;45330;-81
2023/01/08 09:07:20;;;;;;;;;0.00;0.00;;;;;;;;5116731;27;47359;-82
2023/01/08 09:09:46;;;;;;;;;0.00;0.00;;;;;;;;5118204;27;45443;-81
2023/01/08 09:12:11;;;;;;;;;0.75;0.00;;;;;;;;5117924;27;45465;-81
2023/01/08 09:14:36;;;;;;;;;0.00;0.00;;;;;;;;5117636;27;45329;-82
2023/01/08 09:17:01;;;;;;;;;1.00;1.00;;;;;;;;5117230;27;46455;-81
2023/01/08 09:19:26;;;;;;;;;0.75;0.00;;;;;;;;5108558;27;45281;-81
2023/01/08 09:21:51;;;;;;;;;0.00;0.00;;;;;;;;5101622;27;45250;-81
2023/01/08 09:24:17;;;;;;;;;0.75;0.00;;;;;;;;5096276;27;45443;-82
2023/01/08 09:26:42;;;;;;;;;0.00;0.00;;;;;;;;5097241;27;45464;-82
2023/01/08 09:29:07;;;;;;;;;0.50;0.00;;;;;;;;5104307;27;45356;-82
2023/01/08 09:31:33;;;;;;;;;1.00;1.00;;;;;;;;5110119;27;45285;-82
2023/01/08 09:33:58;;;;;;;;;0.00;0.00;;;;;;;;5117974;27;45372;-81
2023/01/08 09:36:23;;;;;;;;;0.00;0.00;;;;;;;;5117929;27;45374;-82
2023/01/08 09:38:48;;;;;;;;;1.00;0.00;;;;;;;;5099161;27;45351;-81
2023/01/08 09:41:20;;;;;;;;;3.00;1.00;;;;;;;;5117351;27;45340;-82
2023/01/08 09:43:47;;;;;;;;;0.00;0.00;;;;;;;;5117110;27;45380;-81
2023/01/08 09:46:14;;;;;;;;;0.00;0.00;;;;;;;;5115185;27;47317;-81
2023/01/08 09:48:40;;;;;;;;;0.00;0.00;;;;;;;;5117187;27;45382;-81
2023/01/08 09:51:08;;;;;;;;;1.00;1.00;;;;;;;;5117166;27;45443;-81
2023/01/08 09:53:33;;;;;;;;;0.50;0.50;;;;;;;;5117325;27;45491;-81
2023/01/08 09:56:06;;;;;;;;;0.00;0.00;;;;;;;;5116673;27;45414;-81
2023/01/08 09:58:34;;;;;;;;;0.00;0.00;;;;;;;;5117320;27;45374;-81
2023/01/08 10:01:00;;;;;;;;;0.75;0.00;;;;;;;;5117440;27;45376;-81
2023/01/08 10:03:30;;;;;;;;;2.00;0.00;;;;;;;;5114525;27;45564;-80
2023/01/08 10:05:55;;;;;;;;;0.00;0.00;;;;;;;;5111225;27;45446;-80
2023/01/08 10:08:20;;;;;;;;;0.00;0.00;;;;;;;;5108917;27;45640;-81
2023/01/08 10:10:46;;;;;;;;;2.00;0.00;;;;;;;;5105164;27;45450;-82
2023/01/08 10:13:11;;;;;;;;;0.00;0.00;;;;;;;;5096588;27;45341;-81
2023/01/08 10:15:38;;;;;;;;;0.00;0.00;;;;;;;;5105985;27;46106;-82
2023/01/08 10:18:10;;;;;;;;;0.50;0.00;;;;;;;;5097963;27;45539;-81
2023/01/08 10:20:38;;;;;;;;;0.00;0.00;;;;;;;;5094818;27;45487;-81
2023/01/08 10:23:11;;;;;;;;;0.00;0.00;;;;;;;;5096468;27;45481;-80
2023/01/08 10:25:47;;;;;;;;;2.00;0.00;;;;;;;;5105814;27;46640;-82
2023/01/08 10:28:20;;;;;;;;;0.00;0.00;;;;;;;;5117105;27;45349;-81
2023/01/08 10:30:46;;;;;;;;;3.00;0.00;;;;;;;;5117451;27;45469;-81
2023/01/08 10:33:20;;;;;;;;;0.75;0.00;;;;;;;;5117164;27;45393;-82
2023/01/08 10:35:51;;;;;;;;;1.75;0.00;;;;;;;;5117180;27;45415;-81
2023/01/08 10:38:24;;;;;;;;;0.00;0.00;;;;;;;;5117122;27;45294;-81
2023/01/08 10:40:50;;;;;;;;;0.00;0.00;;;;;;;;5117171;27;45778;-80
2023/01/08 10:43:17;;;;;;;;;1.00;1.00;;;;;;;;5116782;27;45308;-81
2023/01/08 10:45:43;;;;;;;;;0.25;0.25;;;;;;;;5116844;27;46409;-80
2023/01/08 10:48:15;;;;;;;;;2.00;1.00;;;;;;;;5117097;27;45492;-81
2023/01/08 10:50:43;;;;;;;;;0.75;0.25;;;;;;;;5116923;27;45312;-81
2023/01/08 10:53:22;;;;;;;;;0.33;0.33;;;;;;;;5116206;27;45480;-80
2023/01/08 10:55:56;;;;;;;;;2.25;0.00;;;;;;;;5116630;27;46084;-81
2023/01/08 10:58:21;;;;;;;;;0.00;0.00;;;;;;;;5116893;27;45384;-80
2023/01/08 11:00:46;;;;;;;;;0.00;0.00;;;;;;;;5116799;27;45286;-81
2023/01/08 11:03:23;;;;;;;;;0.00;0.00;;;;;;;;5116144;27;45522;-81
2023/01/08 11:05:49;;;;;;;;;0.00;0.00;;;;;;;;5116272;27;45433;-81
2023/01/08 11:08:18;;;;;;;;;3.25;0.75;;;;;;;;5116542;27;45413;-81
2023/01/08 11:10:52;;;;;;;;;1.75;0.00;;;;;;;;5116532;27;45392;-81
2023/01/08 11:13:18;;;;;;;;;2.00;0.00;;;;;;;;5116453;27;45314;-78
2023/01/08 11:15:43;;;;;;;;;0.00;0.00;;;;;;;;5116076;27;45359;-80
2023/01/08 11:18:14;;;;;;;;;2.67;1.00;;;;;;;;5116083;27;45267;-80
2023/01/08 11:20:40;;;;;;;;;1.00;1.00;;;;;;;;5115957;27;45356;-80
2023/01/08 11:23:13;;;;;;;;;0.00;0.00;;;;;;;;5116819;27;45392;-79
2023/01/08 11:25:39;;;;;;;;;0.00;0.00;;;;;;;;5117060;27;46177;-78
2023/01/08 11:28:05;;;;;;;;;0.00;0.00;;;;;;;;5116675;27;45705;-77
2023/01/08 11:30:32;;;;;;;;;3.00;1.00;;;;;;;;5121844;27;45260;-78
2023/01/08 11:33:03;;;;;;;;;2.00;1.00;;;;;;;;5122865;27;45399;-78
2023/01/08 11:35:37;;;;;;;;;0.00;0.00;;;;;;;;5121695;27;45465;-79
2023/01/08 11:38:04;;;;;;;;;0.00;0.00;;;;;;;;5117520;27;45481;-78
2023/01/08 11:40:30;;;;;;;;;2.00;1.00;;;;;;;;5117704;27;45277;-80
2023/01/08 11:43:03;;;;;;;;;1.00;0.00;;;;;;;;5115520;27;45275;-80
2023/01/08 11:45:36;;;;;;;;;0.67;0.00;;;;;;;;5116029;27;45344;-78
2023/01/08 11:48:13;;;;;;;;;0.00;0.00;;;;;;;;5114491;27;45490;-81
2023/01/08 11:50:57;;;;;;;;;1.00;1.00;;;;;;;;5115954;27;45399;-81
2023/01/08 11:53:25;;;;;;;;;0.75;0.75;;;;;;;;5114607;27;45543;-81
2023/01/08 11:55:53;;;;;;;;;1.00;0.00;;;;;;;;5115750;27;46335;-81
2023/01/08 11:58:21;;;;;;;;;0.33;0.00;;;;;;;;5115713;27;45407;-81
2023/01/08 12:00:56;;;;;;;;;1.00;1.00;;;;;;;;5115971;27;45350;-80
2023/01/08 12:03:34;;;;;;;;;0.33;0.00;;;;;;;;5115502;27;45422;-80
2023/01/08 12:06:08;;;;;;;;;0.00;0.00;;;;;;;;5115641;27;46199;-81
2023/01/08 12:08:36;;;;;;;;;1.67;0.67;;;;;;;;5115262;27;45478;-81
2023/01/08 12:11:01;;;;;;;;;0.00;0.00;;;;;;;;5115554;27;45341;-80
2023/01/08 12:13:47;;;;;;;;;0.00;0.00;;;;;;;;5115508;27;45303;-81
2023/01/08 12:16:31;;;;;;;;;0.75;0.25;;;;;;;;5114379;27;46502;-80
2023/01/08 12:19:09;;;;;;;;;0.00;0.00;;;;;;;;5115628;27;45296;-80
2023/01/08 12:21:51;;;;;;;;;1.00;0.00;;;;;;;;5115463;27;45414;-79
2023/01/08 12:24:42;;;;;;;;;0.33;0.00;;;;;;;;5114336;27;45310;-79
2023/01/08 12:27:07;;;;;;;;;0.50;0.50;;;;;;;;5112124;27;45619;-78
2023/01/08 12:29:42;;;;;;;;;0.00;0.00;;;;;;;;5114282;27;45582;-79
2023/01/08 12:32:09;;;;;;;;;0.33;0.33;;;;;;;;5117864;27;45340;-78
2023/01/08 12:34:45;;;;;;;;;0.00;0.00;;;;;;;;5118745;27;45266;-79
2023/01/08 12:37:13;;;;;;;;;1.00;0.00;;;;;;;;5118721;27;46215;-79
2023/01/08 12:40:02;;;;;;;;;0.67;0.00;;;;;;;;5118865;27;45575;-79
2023/01/08 12:42:29;;;;;;;;;0.00;0.00;;;;;;;;5119238;27;45320;-79
2023/01/08 12:44:57;;;;;;;;;0.25;0.25;;;;;;;;5118034;27;45572;-79
2023/01/08 12:47:26;;;;;;;;;0.25;0.00;;;;;;;;5119281;27;46400;-79
2023/01/08 12:50:12;;;;;;;;;0.75;0.00;;;;;;;;5118892;27;45395;-79
2023/01/08 12:53:06;;;;;;;;;0.00;0.00;;;;;;;;5058115;28;45506;-79
2023/01/08 12:55:41;;;;;;;;;1.00;1.00;;;;;;;;5014801;28;45453;-79
2023/01/08 12:58:14;;;;;;;;;0.50;0.00;;;;;;;;4997063;28;46584;-79
2023/01/08 13:00:44;;;;;;;;;0.25;0.25;;;;;;;;5014725;28;45647;-79
2023/01/08 13:03:16;;;;;;;;;1.00;0.33;;;;;;;;5013760;28;45323;-79
2023/01/08 13:05:42;;;;;;;;;0.33;0.00;;;;;;;;5014257;28;45462;-79
2023/01/08 13:08:22;;;;;;;;;0.00;0.00;;;;;;;;5014225;28;45942;-79
2023/01/08 13:10:52;;;;;;;;;0.00;0.00;;;;;;;;5014437;28;45702;-79
2023/01/08 13:13:25;;;;;;;;;0.00;0.00;;;;;;;;5014297;28;45491;-79
2023/01/08 13:15:51;;;;;;;;;0.50;0.00;;;;;;;;5014397;28;45656;-79
2023/01/08 13:18:18;;;;;;;;;1.00;1.00;;;;;;;;5014454;28;46149;-79
2023/01/08 13:20:54;;;;;;;;;1.00;0.00;;;;;;;;4998054;28;45337;-79
2023/01/08 13:23:26;;;;;;;;;0.00;0.00;;;;;;;;5014695;28;45491;-79
2023/01/08 13:25:52;;;;;;;;;0.00;0.00;;;;;;;;4998102;28;45633;-80
2023/01/08 13:28:23;;;;;;;;;0.67;0.00;;;;;;;;4998573;28;45619;-80
2023/01/08 13:30:49;;;;;;;;;0.00;0.00;;;;;;;;5064261;27;46834;-80
2023/01/08 13:33:32;;;;;;;;;1.00;0.00;;;;;;;;5113080;27;45790;-80
2023/01/08 13:36:19;;;;;;;;;0.50;0.50;;;;;;;;5128811;27;45387;-79
2023/01/08 13:38:45;;;;;;;;;1.00;1.00;;;;;;;;5133244;27;46003;-79
2023/01/08 13:41:23;;;;;;;;;1.00;1.00;;;;;;;;5115086;27;45415;-80
2023/01/08 13:43:50;;;;;;;;;1.00;1.00;;;;;;;;5122090;27;45515;-79
2023/01/08 13:46:17;;;;;;;;;0.33;0.33;;;;;;;;5114327;27;46350;-79
2023/01/08 13:48:58;;;;;;;;;2.00;0.00;;;;;;;;5132095;27;46028;-80
2023/01/08 13:51:43;;;;;;;;;1.75;1.75;;;;;;;;5103565;27;45480;-80
2023/01/08 13:54:12;;;;;;;;;0.00;0.00;;;;;;;;5125096;27;45318;-80
2023/01/08 13:56:41;;;;;;;;;1.00;0.00;;;;;;;;5132183;27;45433;-79
2023/01/08 13:59:15;;;;;;;;;1.00;0.00;;;;;;;;5106896;27;46345;-80
2023/01/08 14:01:50;;;;;;;;;0.00;0.00;;;;;;;;5121115;27;45638;-80
2023/01/08 14:04:19;;;;;;;;;0.00;0.00;;;;;;;;5128212;27;45400;-80
2023/01/08 14:06:44;;;;;;;;;0.00;0.00;;;;;;;;5122079;27;45416;-79
2023/01/08 14:09:17;;;;;;;;;0.00;0.00;;;;;;;;5132465;27;46395;-81
2023/01/08 14:11:45;;;;;;;;;0.00;0.00;;;;;;;;5121546;27;45404;-82
2023/01/08 14:14:16;;;;;;;;;0.67;0.33;;;;;;;;5132295;27;45254;-82
2023/01/08 14:16:41;;;;;;;;;0.00;0.00;;;;;;;;5121987;27;45524;-82
2023/01/08 14:19:07;;;;;;;;;0.00;0.00;;;;;;;;5133982;27;45498;-81
2023/01/08 14:21:32;;;;;;;;;1.00;0.00;;;;;;;;5123892;27;45485;-81
2023/01/08 14:23:57;;;;;;;;;0.00;0.00;;;;;;;;5129011;27;45392;-80
2023/01/08 14:26:36;;;;;;;;;0.50;0.00;;;;;;;;5130421;27;45520;-81
2023/01/08 14:29:03;;;;;;;;;1.50;0.00;;;;;;;;5119225;27;45307;-81
2023/01/08 14:31:28;;;;;;;;;0.25;0.25;;;;;;;;5122202;27;45410;-80
2023/01/08 14:33:54;;;;;;;;;0.00;0.00;;;;;;;;5128165;27;45322;-81
2023/01/08 14:36:20;;;;;;;;;0.00;0.00;;;;;;;;5128874;27;45355;-82
2023/01/08 14:38:49;;;;;;;;;3.00;0.00;;;;;;;;5121619;27;47966;-82
2023/01/08 14:41:16;;;;;;;;;0.00;0.00;;;;;;;;5135085;27;45552;-82
2023/01/08 14:43:43;;;;;;;;;0.00;0.00;;;;;;;;5119919;27;45337;-81
2023/01/08 14:46:18;;;;;;;;;0.25;0.25;;;;;;;;5143074;27;45801;-81